AAL456Q -KLAX
Flight info
| Callsign | AAL456Q |
|---|---|
| Flight time | N/A |
| Altitude | |
| Route | |
| Aircraft | B738/M-DOV/C |
Departure
| Time | N/A |
|---|---|
| Airport | - |
Arrival
| Time | 2026-04-26 23:21 |
|---|---|
| Airport | Los Angeles International Airport (KLAX) |
| Time | Latitude | Longitude | Altitude | Speed | Heading |
|---|---|---|---|---|---|
| 2026-04-26 23:08 | 33.97504 | -117.66213 | 9781 ft | 277 kts | 271° |
| 2026-04-26 23:08 | 33.97537 | -117.68494 | 9566 ft | 269 kts | 271° |
| 2026-04-26 23:08 | 33.97568 | -117.70733 | 9240 ft | 267 kts | 271° |
| 2026-04-26 23:09 | 33.97600 | -117.72965 | 8994 ft | 263 kts | 271° |
| 2026-04-26 23:09 | 33.97631 | -117.75167 | 8725 ft | 262 kts | 271° |
| 2026-04-26 23:09 | 33.97662 | -117.77365 | 8347 ft | 262 kts | 271° |
| 2026-04-26 23:09 | 33.97691 | -117.79570 | 7943 ft | 262 kts | 271° |
| 2026-04-26 23:10 | 33.97720 | -117.81720 | 7731 ft | 250 kts | 271° |
| 2026-04-26 23:10 | 33.97747 | -117.83721 | 7536 ft | 234 kts | 270° |
| 2026-04-26 23:10 | 33.97772 | -117.85621 | 7167 ft | 226 kts | 270° |
| 2026-04-26 23:10 | 33.97796 | -117.87542 | 6660 ft | 226 kts | 270° |
| 2026-04-26 23:11 | 33.97819 | -117.89433 | 6130 ft | 226 kts | 270° |
| 2026-04-26 23:11 | 33.97844 | -117.91331 | 5712 ft | 225 kts | 270° |
| 2026-04-26 23:11 | 33.97867 | -117.93158 | 5504 ft | 208 kts | 269° |
| 2026-04-26 23:11 | 33.97888 | -117.94833 | 5208 ft | 196 kts | 270° |
| 2026-04-26 23:12 | 33.97910 | -117.96418 | 4981 ft | 186 kts | 269° |
| 2026-04-26 23:12 | 33.97929 | -117.97979 | 4688 ft | 185 kts | 269° |
| 2026-04-26 23:12 | 33.97945 | -117.99556 | 4484 ft | 189 kts | 269° |
| 2026-04-26 23:12 | 33.97962 | -118.01119 | 4311 ft | 190 kts | 269° |
| 2026-04-26 23:13 | 33.97980 | -118.02737 | 4091 ft | 192 kts | 269° |
| 2026-04-26 23:13 | 33.97999 | -118.04331 | 3956 ft | 190 kts | 268° |
| 2026-04-26 23:13 | 33.98015 | -118.05918 | 3961 ft | 190 kts | 268° |
| 2026-04-26 23:13 | 33.98016 | -118.07516 | 3973 ft | 189 kts | 269° |
| 2026-04-26 23:14 | 33.97998 | -118.09050 | 3966 ft | 177 kts | 268° |
| 2026-04-26 23:14 | 33.97963 | -118.10491 | 3972 ft | 168 kts | 267° |
| 2026-04-26 23:14 | 33.97908 | -118.11906 | 3971 ft | 172 kts | 267° |
| 2026-04-26 23:14 | 33.97834 | -118.13353 | 3965 ft | 174 kts | 266° |
| 2026-04-26 23:15 | 33.97741 | -118.14795 | 3961 ft | 171 kts | 265° |
| 2026-04-26 23:15 | 33.97630 | -118.16216 | 3970 ft | 170 kts | 264° |
| 2026-04-26 23:15 | 33.97498 | -118.17655 | 3973 ft | 175 kts | 263° |
| 2026-04-26 23:15 | 33.97353 | -118.19100 | 3758 ft | 173 kts | 263° |
| 2026-04-26 23:16 | 33.97212 | -118.20538 | 3449 ft | 173 kts | 263° |
| 2026-04-26 23:16 | 33.97066 | -118.21977 | 3174 ft | 172 kts | 263° |
| 2026-04-26 23:16 | 33.96925 | -118.23368 | 2925 ft | 166 kts | 263° |
| 2026-04-26 23:16 | 33.96789 | -118.24709 | 2700 ft | 156 kts | 262° |
| 2026-04-26 23:17 | 33.96661 | -118.25962 | 2493 ft | 145 kts | 262° |
| 2026-04-26 23:17 | 33.96544 | -118.27117 | 2324 ft | 135 kts | 262° |
| 2026-04-26 23:17 | 33.96432 | -118.28207 | 2136 ft | 128 kts | 262° |
| 2026-04-26 23:17 | 33.96323 | -118.29268 | 1986 ft | 127 kts | 263° |
| 2026-04-26 23:18 | 33.96215 | -118.30335 | 1821 ft | 129 kts | 261° |
| 2026-04-26 23:18 | 33.96106 | -118.31399 | 1622 ft | 126 kts | 263° |
| 2026-04-26 23:18 | 33.95999 | -118.32447 | 1465 ft | 125 kts | 262° |
| 2026-04-26 23:18 | 33.95894 | -118.33475 | 1297 ft | 125 kts | 263° |
| 2026-04-26 23:19 | 33.95792 | -118.34513 | 1189 ft | 124 kts | 263° |
| 2026-04-26 23:19 | 33.95703 | -118.35540 | 1054 ft | 123 kts | 263° |
| 2026-04-26 23:19 | 33.95601 | -118.36571 | 842 ft | 124 kts | 261° |
| 2026-04-26 23:19 | 33.95492 | -118.37583 | 646 ft | 120 kts | 261° |
| 2026-04-26 23:20 | 33.95379 | -118.38577 | 419 ft | 120 kts | 261° |
| 2026-04-26 23:20 | 33.95282 | -118.39569 | 267 ft | 120 kts | 259° |
| 2026-04-26 23:20 | 33.95174 | -118.40575 | 155 ft | 122 kts | 262° |
| 2026-04-26 23:20 | 33.95073 | -118.41531 | 132 ft | 105 kts | 260° |
| 2026-04-26 23:21 | 33.95005 | -118.42195 | 125 ft | 51 kts | 264° |
| 2026-04-26 23:21 | 33.94974 | -118.42449 | 125 ft | 24 kts | 251° |
| 2026-04-26 23:21 | 33.94937 | -118.42544 | 127 ft | 2 kts | 240° |
| 2026-04-26 23:21 | 33.94925 | -118.42567 | 127 ft | 9 kts | 238° |
| 2026-04-26 23:22 | 33.94891 | -118.42625 | 125 ft | 8 kts | 232° |
| 2026-04-26 23:22 | 33.94857 | -118.42674 | 124 ft | 7 kts | 227° |
| 2026-04-26 23:22 | 33.94818 | -118.42712 | 124 ft | 7 kts | 218° |
| 2026-04-26 23:22 | 33.94776 | -118.42748 | 125 ft | 7 kts | 208° |
| 2026-04-26 23:23 | 33.94727 | -118.42773 | 125 ft | 8 kts | 203° |
| 2026-04-26 23:23 | 33.94682 | -118.42781 | 127 ft | 5 kts | 184° |